ナイロビ の空港の天気 - METARとTAF

ジョモ・ケニヤッタ国際空港 ( HKJK / NBO ) - ケニア ナイロビ
飛行場実況気象(Metar)
観測時間01/25 03:00 EAT (01/25 00:00 UTC)
風向・風速北北東 3m/s
視程10km以上
天気現象
全天の8割程度の雲 雲底高度 520m
気温19℃
湿度88%
気圧1022hPa
METARHKJK 250000Z 03005KT 9999 BKN017 19/17 Q1022 NOSIG
過去の天気等 Google飛行場航空写真 Wunderground天気予報

過去48時間のMETAR

飛行場予報(TAF)
発表時間: 1/24 14:00 EAT (1/24 11:00 UTC)
予報対象時間: 24日15時 EAT ~ 25日21時 EAT
風向・風速東北東 5m/s
視程10km以上
全天の8割程度の雲 雲底高度 790m
24日15時 EAT ~ 24日21時 EAT に一時的に
天気現象弱いしゅう雨
少しの積乱雲 雲底高度 730m
全天の8割程度の雲 雲底高度 760m
全天の8割程度の雲 雲底高度 2440m
24日23時 EAT ~ 25日2時 EAT に徐々に
風向・風速北北東 3m/s
天気現象運行に影響にある天気現象が終了
全天の4割程度の雲 雲底高度 550m
全天の8割程度の雲 雲底高度 2440m
25日11時 EAT ~ 25日14時 EAT に徐々に
風向・風速東北東 5m/s
全天の8割程度の雲 雲底高度 760m
TAF HKJK 241100Z 2412/2518 06010KT 9999 BKN026
TEMPO 2412/2418 -SHRA FEW024CB BKN025 BKN080
BECMG 2420/2423 03005KT NSW SCT018 BKN080
BECMG 2508/2511 06010KT BKN025